createdAt,value
2023-02-07T00:01:25.711Z,18.87
2023-02-07T00:03:52.899Z,18.87
2023-02-07T00:06:24.665Z,18.87
2023-02-07T00:08:52.858Z,18.83
2023-02-07T00:11:21.121Z,18.84
2023-02-07T00:13:50.217Z,18.83
2023-02-07T00:16:17.124Z,18.82
2023-02-07T00:18:44.171Z,18.85
2023-02-07T00:21:14.258Z,18.81
2023-02-07T00:23:41.712Z,18.88
2023-02-07T00:26:09.262Z,19.03
2023-02-07T00:28:37.033Z,19.24
2023-02-07T00:31:06.813Z,19.45
2023-02-07T00:33:35.452Z,19.63
2023-02-07T00:36:05.402Z,19.79
2023-02-07T00:38:32.136Z,19.94
2023-02-07T00:40:59.070Z,19.98
2023-02-07T00:43:29.848Z,20.05
2023-02-07T00:46:01.352Z,20.14
2023-02-07T00:48:28.935Z,20.21
2023-02-07T00:50:56.216Z,20.30
2023-02-07T00:53:23.543Z,20.30
2023-02-07T00:55:50.250Z,20.34
2023-02-07T00:58:17.092Z,20.40
2023-02-07T01:00:43.749Z,20.47
2023-02-07T01:03:10.356Z,20.49
2023-02-07T01:05:37.408Z,20.66
2023-02-07T01:08:04.582Z,20.67
2023-02-07T01:10:31.870Z,20.64
2023-02-07T01:12:58.906Z,20.62
2023-02-07T01:15:26.369Z,20.57
2023-02-07T01:17:52.974Z,20.54
2023-02-07T01:20:19.729Z,20.59
2023-02-07T01:22:46.359Z,20.57
2023-02-07T01:25:13.006Z,20.57
2023-02-07T01:27:39.579Z,20.57
2023-02-07T01:30:06.472Z,20.59
2023-02-07T01:32:33.907Z,20.69
2023-02-07T01:35:00.762Z,20.65
2023-02-07T01:37:27.556Z,20.73
2023-02-07T01:39:55.034Z,20.77
2023-02-07T01:42:24.587Z,20.78
2023-02-07T01:44:51.076Z,20.52
2023-02-07T01:47:23.692Z,20.32
2023-02-07T01:49:55.576Z,20.14
2023-02-07T01:52:26.868Z,19.99
2023-02-07T01:54:58.133Z,19.82
2023-02-07T01:57:25.569Z,19.73
2023-02-07T01:59:54.297Z,19.62
2023-02-07T02:02:23.112Z,19.52
2023-02-07T02:04:54.933Z,19.53
2023-02-07T02:07:23.005Z,19.48
2023-02-07T02:09:49.601Z,19.42
2023-02-07T02:12:55.652Z,19.49
2023-02-07T02:15:37.901Z,19.50
2023-02-07T02:18:38.521Z,19.45
2023-02-07T02:21:22.036Z,19.49
2023-02-07T02:24:29.461Z,19.48
2023-02-07T02:27:09.834Z,19.44
2023-02-07T02:29:54.472Z,19.44
2023-02-07T02:32:36.001Z,19.39
2023-02-07T02:35:19.745Z,19.38
2023-02-07T02:38:03.221Z,19.36
2023-02-07T02:40:51.782Z,19.33
2023-02-07T02:43:31.820Z,19.32
2023-02-07T02:46:03.440Z,19.31
2023-02-07T02:48:31.190Z,19.32
2023-02-07T02:50:58.457Z,19.28
2023-02-07T02:53:25.033Z,19.26
2023-02-07T02:56:18.703Z,19.25
2023-02-07T02:59:13.294Z,19.24
2023-02-07T03:02:02.693Z,19.21
2023-02-07T03:04:39.094Z,19.19
2023-02-07T03:07:23.488Z,19.16
2023-02-07T03:10:28.488Z,19.14
2023-02-07T03:12:58.200Z,19.15
2023-02-07T03:15:50.705Z,19.19
2023-02-07T03:18:43.234Z,19.15
2023-02-07T03:21:24.605Z,19.17
2023-02-07T03:23:53.845Z,19.14
2023-02-07T03:26:23.312Z,19.15
2023-02-07T03:28:51.441Z,19.11
2023-02-07T03:31:21.777Z,19.11
2023-02-07T03:33:51.251Z,19.11
2023-02-07T03:36:28.621Z,19.12
2023-02-07T03:38:55.263Z,19.12
2023-02-07T03:41:33.845Z,19.12
2023-02-07T03:44:06.955Z,19.09
2023-02-07T03:46:37.888Z,19.14
2023-02-07T03:49:05.446Z,19.05
2023-02-07T03:51:32.001Z,19.02
2023-02-07T03:53:58.608Z,19.02
2023-02-07T03:56:25.355Z,19.00
2023-02-07T03:58:52.188Z,19.01
2023-02-07T04:01:18.873Z,18.99
2023-02-07T04:03:45.599Z,18.97
2023-02-07T04:06:12.301Z,18.93
2023-02-07T04:08:38.903Z,18.94
2023-02-07T04:11:05.612Z,18.92
2023-02-07T04:13:32.224Z,18.90
2023-02-07T04:15:59.302Z,18.89
2023-02-07T04:18:25.973Z,18.87
2023-02-07T04:21:00.975Z,18.90
2023-02-07T04:23:27.615Z,18.86
2023-02-07T04:25:54.183Z,18.87
2023-02-07T04:28:20.813Z,18.87
2023-02-07T04:30:47.469Z,18.85
2023-02-07T04:33:14.085Z,18.84
2023-02-07T04:35:40.712Z,18.83
2023-02-07T04:38:07.299Z,18.84
2023-02-07T04:40:34.015Z,18.86
2023-02-07T04:43:00.590Z,18.88
2023-02-07T04:45:27.195Z,18.85
2023-02-07T04:47:53.776Z,18.85
2023-02-07T04:50:20.388Z,18.82
2023-02-07T04:52:47.033Z,18.83
2023-02-07T04:55:13.621Z,18.83
2023-02-07T04:57:40.197Z,18.85
2023-02-07T05:00:07.042Z,18.84
2023-02-07T05:02:33.686Z,18.85
2023-02-07T05:05:00.261Z,18.84
2023-02-07T05:07:26.852Z,18.82
2023-02-07T05:09:53.708Z,18.85
2023-02-07T05:12:20.377Z,18.83
2023-02-07T05:14:46.974Z,18.84
2023-02-07T05:17:13.596Z,18.80
2023-02-07T05:19:40.179Z,18.80
2023-02-07T05:22:06.766Z,18.80
2023-02-07T05:24:33.522Z,18.81
2023-02-07T05:27:00.141Z,18.78
2023-02-07T05:29:26.848Z,18.80
2023-02-07T05:32:12.693Z,18.73
2023-02-07T05:34:39.277Z,18.72
2023-02-07T05:37:05.858Z,18.72
2023-02-07T05:39:32.436Z,18.72
2023-02-07T05:41:59.109Z,18.75
2023-02-07T05:44:25.706Z,18.74
2023-02-07T05:46:52.743Z,18.75
2023-02-07T05:49:19.417Z,18.73
2023-02-07T05:51:46.026Z,18.73
2023-02-07T05:54:12.651Z,18.74
2023-02-07T05:56:39.255Z,18.74
2023-02-07T05:59:05.950Z,18.75
2023-02-07T06:01:32.570Z,18.71
2023-02-07T06:03:59.172Z,18.72
2023-02-07T06:06:25.779Z,18.70
2023-02-07T06:08:52.384Z,18.72
2023-02-07T06:11:18.950Z,18.68
2023-02-07T06:13:45.580Z,18.65
2023-02-07T06:16:12.568Z,18.66
2023-02-07T06:18:39.279Z,18.66
2023-02-07T06:21:06.084Z,18.66
2023-02-07T06:23:32.671Z,18.65
2023-02-07T06:25:59.273Z,18.61
2023-02-07T06:28:25.873Z,18.66
2023-02-07T06:30:53.371Z,18.66
2023-02-07T06:33:20.149Z,18.68
2023-02-07T06:35:47.485Z,18.72
2023-02-07T06:38:18.173Z,18.70
2023-02-07T06:40:45.285Z,18.70
2023-02-07T06:43:12.396Z,18.68
2023-02-07T06:45:39.255Z,18.70
2023-02-07T06:48:06.606Z,18.72
2023-02-07T06:50:33.671Z,18.70
2023-02-07T06:53:02.126Z,18.71
2023-02-07T06:55:29.808Z,18.74
2023-02-07T06:57:56.571Z,18.97
2023-02-07T07:00:24.809Z,18.94
2023-02-07T07:02:51.466Z,18.98
2023-02-07T07:05:18.073Z,18.97
2023-02-07T07:07:44.874Z,18.98
2023-02-07T07:10:11.517Z,18.99
2023-02-07T07:12:38.111Z,18.98
2023-02-07T07:15:05.238Z,18.95
2023-02-07T07:17:31.857Z,18.92
2023-02-07T07:19:59.784Z,18.98
2023-02-07T07:22:26.628Z,18.97
2023-02-07T07:24:53.195Z,18.98
2023-02-07T07:27:19.754Z,19.01
2023-02-07T07:29:47.184Z,19.02
2023-02-07T07:35:00.558Z,19.00
2023-02-07T07:37:27.142Z,19.00
2023-02-07T07:39:53.794Z,18.96
2023-02-07T07:42:20.388Z,18.97
2023-02-07T07:44:47.002Z,18.97
2023-02-07T07:47:13.854Z,18.98
2023-02-07T07:49:40.718Z,18.99
2023-02-07T07:52:07.540Z,19.00
2023-02-07T07:54:34.122Z,19.01
2023-02-07T07:57:00.745Z,19.04
2023-02-07T07:59:27.493Z,19.07
2023-02-07T08:01:54.068Z,19.13
2023-02-07T08:04:20.664Z,19.19
2023-02-07T08:06:47.251Z,19.23
2023-02-07T08:09:13.968Z,19.30
2023-02-07T08:11:40.560Z,19.38
2023-02-07T08:14:07.170Z,19.51
2023-02-07T08:16:33.878Z,19.73
2023-02-07T08:19:00.468Z,19.93
2023-02-07T08:21:27.068Z,20.11
2023-02-07T08:23:57.183Z,20.30
2023-02-07T08:26:23.766Z,20.44
2023-02-07T08:28:52.394Z,20.58
2023-02-07T08:31:19.305Z,20.69
2023-02-07T08:33:45.998Z,20.85
2023-02-07T08:36:13.008Z,21.01
2023-02-07T08:38:39.625Z,21.30
2023-02-07T08:41:06.298Z,21.47
2023-02-07T08:43:32.909Z,21.61
2023-02-07T08:46:00.770Z,21.69
2023-02-07T08:48:27.641Z,21.83
2023-02-07T08:50:54.519Z,21.85
2023-02-07T08:53:21.489Z,21.89
2023-02-07T08:55:48.458Z,21.93
2023-02-07T08:58:15.069Z,21.90
2023-02-07T09:00:42.113Z,21.57
2023-02-07T09:03:09.003Z,21.27
2023-02-07T09:05:35.682Z,21.10
2023-02-07T09:08:03.043Z,21.26
2023-02-07T09:10:29.836Z,21.58
2023-02-07T09:12:56.429Z,21.61
2023-02-07T09:15:23.016Z,21.31
2023-02-07T09:17:49.726Z,21.10
2023-02-07T09:20:16.346Z,21.00
2023-02-07T09:23:12.481Z,20.75
2023-02-07T09:25:40.791Z,20.87
2023-02-07T09:28:08.706Z,21.12
2023-02-07T09:30:35.696Z,21.05
2023-02-07T09:33:02.495Z,20.86
2023-02-07T09:35:29.093Z,20.51
2023-02-07T09:37:56.117Z,20.73
2023-02-07T09:40:23.505Z,21.28
2023-02-07T09:43:08.986Z,20.76
2023-02-07T09:45:40.679Z,20.38
2023-02-07T09:48:17.842Z,20.52
2023-02-07T09:50:57.232Z,20.51
2023-02-07T09:53:28.841Z,20.43
2023-02-07T09:56:01.196Z,20.39
2023-02-07T09:58:41.018Z,20.79
2023-02-07T10:01:24.218Z,20.76
2023-02-07T10:04:01.947Z,20.40
2023-02-07T10:06:30.126Z,20.53
2023-02-07T10:08:59.898Z,20.92
2023-02-07T10:11:42.749Z,22.26
2023-02-07T10:14:34.883Z,22.19
2023-02-07T10:17:07.118Z,22.96
2023-02-07T10:19:36.695Z,23.77
2023-02-07T10:22:24.448Z,24.27
2023-02-07T10:25:07.049Z,24.16
2023-02-07T10:27:48.038Z,23.43
2023-02-07T10:30:23.654Z,22.37
2023-02-07T10:32:52.117Z,22.39
2023-02-07T10:35:28.448Z,22.40
2023-02-07T10:37:59.519Z,23.28
2023-02-07T10:40:34.964Z,24.02
2023-02-07T10:43:19.758Z,23.81
2023-02-07T10:45:51.885Z,24.56
2023-02-07T10:48:20.952Z,24.83
2023-02-07T10:50:47.778Z,24.30
2023-02-07T10:53:54.318Z,24.52
2023-02-07T10:56:26.990Z,24.02
2023-02-07T10:58:56.327Z,22.74
2023-02-07T11:01:31.880Z,21.62
2023-02-07T11:03:58.622Z,21.07
2023-02-07T11:06:27.568Z,20.62
2023-02-07T11:09:12.730Z,20.33
2023-02-07T11:11:40.766Z,20.15
2023-02-07T11:14:15.525Z,20.01
2023-02-07T11:16:45.546Z,19.86
2023-02-07T11:19:20.471Z,20.01
2023-02-07T11:21:49.221Z,20.61
2023-02-07T11:24:19.676Z,20.40
2023-02-07T11:27:06.758Z,20.03
2023-02-07T11:29:44.185Z,19.95
2023-02-07T11:32:15.037Z,20.15
2023-02-07T11:34:46.612Z,20.29
2023-02-07T11:37:27.360Z,20.49
2023-02-07T11:40:16.037Z,20.34
2023-02-07T11:42:43.020Z,20.02
2023-02-07T11:45:15.562Z,19.94
2023-02-07T11:47:45.221Z,19.89
2023-02-07T11:50:20.858Z,19.65
2023-02-07T11:52:56.683Z,19.64
2023-02-07T11:55:34.307Z,19.57
2023-02-07T11:58:17.813Z,19.54
2023-02-07T12:00:45.191Z,19.57
2023-02-07T12:03:41.289Z,19.48
2023-02-07T12:06:14.320Z,19.42
2023-02-07T12:08:41.581Z,19.43
2023-02-07T12:11:17.450Z,19.46
2023-02-07T12:13:52.634Z,19.51
2023-02-07T12:16:42.134Z,19.56
2023-02-07T12:19:19.186Z,19.63
2023-02-07T12:22:07.604Z,19.66
2023-02-07T12:24:43.173Z,19.71
2023-02-07T12:27:16.675Z,19.83
2023-02-07T12:30:12.930Z,19.89
2023-02-07T12:32:54.681Z,20.26
2023-02-07T12:35:58.856Z,20.17
2023-02-07T12:38:32.775Z,20.24
2023-02-07T12:41:18.598Z,20.02
2023-02-07T12:44:09.563Z,19.89
2023-02-07T12:46:36.870Z,20.08
2023-02-07T12:49:28.499Z,20.67
2023-02-07T12:52:40.471Z,20.75
2023-02-07T12:55:20.632Z,21.06
2023-02-07T12:57:56.438Z,21.49
2023-02-07T13:00:26.138Z,21.16
2023-02-07T13:03:14.654Z,21.26
2023-02-07T13:05:47.918Z,21.25
2023-02-07T13:08:33.982Z,21.14
2023-02-07T13:11:08.904Z,21.25
2023-02-07T13:13:54.034Z,21.20
2023-02-07T13:16:27.485Z,21.05
2023-02-07T13:19:44.161Z,21.02
2023-02-07T13:22:36.458Z,20.94
2023-02-07T13:25:07.778Z,20.69
2023-02-07T13:27:36.587Z,20.61
2023-02-07T13:30:03.546Z,20.59
2023-02-07T13:32:30.154Z,20.55
2023-02-07T13:35:05.746Z,20.59
2023-02-07T13:37:59.260Z,20.67
2023-02-07T13:40:58.933Z,20.79
2023-02-07T13:44:10.351Z,20.84
2023-02-07T13:47:14.557Z,20.82
2023-02-07T13:49:47.772Z,20.75
2023-02-07T13:52:55.236Z,20.82
2023-02-07T13:55:40.137Z,20.79
2023-02-07T13:58:51.643Z,20.90
2023-02-07T14:01:24.390Z,20.79
2023-02-07T14:04:09.240Z,20.44
2023-02-07T14:06:42.702Z,20.39
2023-02-07T14:09:15.401Z,20.46
2023-02-07T14:11:44.723Z,20.66
2023-02-07T14:14:27.651Z,20.69
2023-02-07T14:17:00.225Z,20.40
2023-02-07T14:19:43.176Z,20.21
2023-02-07T14:22:31.226Z,20.00
2023-02-07T14:25:03.565Z,19.82
2023-02-07T14:27:31.868Z,19.96
2023-02-07T14:30:01.491Z,20.25
2023-02-07T14:32:39.024Z,20.60
2023-02-07T14:35:17.439Z,20.72
2023-02-07T14:37:51.586Z,20.76
2023-02-07T14:40:32.951Z,20.77
2023-02-07T14:43:03.831Z,20.81
2023-02-07T14:45:33.480Z,20.80
2023-02-07T14:48:00.917Z,20.67
2023-02-07T14:50:33.982Z,20.71
2023-02-07T14:53:04.585Z,20.74
2023-02-07T14:55:41.074Z,20.70
2023-02-07T14:58:19.894Z,20.69
2023-02-07T15:00:51.048Z,20.72
2023-02-07T15:03:20.568Z,20.66
2023-02-07T15:05:53.967Z,20.47
2023-02-07T15:08:23.666Z,20.34
2023-02-07T15:11:04.237Z,20.10
2023-02-07T15:13:39.180Z,19.92
2023-02-07T15:16:07.090Z,19.67
2023-02-07T15:18:39.037Z,19.54
2023-02-07T15:21:07.153Z,19.39
2023-02-07T15:23:33.811Z,19.35
2023-02-07T15:26:06.136Z,19.22
2023-02-07T15:28:33.347Z,19.24
2023-02-07T15:31:10.531Z,19.33
2023-02-07T15:34:05.383Z,19.32
2023-02-07T15:36:37.962Z,19.40
2023-02-07T15:39:07.831Z,19.44
2023-02-07T15:41:34.976Z,19.50
2023-02-07T15:44:07.242Z,19.51
2023-02-07T15:46:55.734Z,19.46
2023-02-07T15:49:35.514Z,19.47
2023-02-07T15:52:14.413Z,19.41
2023-02-07T15:54:47.003Z,19.43
2023-02-07T15:57:25.625Z,19.40
2023-02-07T15:59:55.545Z,19.38
2023-02-07T16:02:31.612Z,19.36
2023-02-07T16:04:59.661Z,19.35
2023-02-07T16:07:27.206Z,19.35
2023-02-07T16:09:54.019Z,19.32
2023-02-07T16:12:33.343Z,19.30
2023-02-07T16:15:01.929Z,19.26
2023-02-07T16:17:44.143Z,19.23
2023-02-07T16:20:14.612Z,19.22
2023-02-07T16:22:43.910Z,19.21
2023-02-07T16:25:22.095Z,19.12
2023-02-07T16:27:51.838Z,19.15
2023-02-07T16:30:23.544Z,19.15
2023-02-07T16:32:50.524Z,19.12
2023-02-07T16:35:20.878Z,19.10
2023-02-07T16:37:47.866Z,19.08
2023-02-07T16:40:15.474Z,19.04
2023-02-07T16:42:42.628Z,19.11
2023-02-07T16:45:17.147Z,19.10
2023-02-07T16:47:44.429Z,19.08
2023-02-07T16:50:19.004Z,19.07
2023-02-07T16:52:47.531Z,19.04
2023-02-07T16:55:14.338Z,19.08
2023-02-07T16:57:42.553Z,19.20
2023-02-07T17:00:13.906Z,19.28
2023-02-07T17:02:40.653Z,19.24
2023-02-07T17:05:07.583Z,19.25
2023-02-07T17:07:34.233Z,19.29
2023-02-07T17:10:00.971Z,19.37
2023-02-07T17:12:27.576Z,19.41
2023-02-07T17:14:54.262Z,19.44
2023-02-07T17:17:20.964Z,19.49
2023-02-07T17:19:48.817Z,19.51
2023-02-07T17:22:15.508Z,19.53
2023-02-07T17:24:42.195Z,19.57
2023-02-07T17:27:10.580Z,19.67
2023-02-07T17:29:37.228Z,19.66
2023-02-07T17:32:03.996Z,19.67
2023-02-07T17:34:30.581Z,19.70
2023-02-07T17:36:57.280Z,19.68
2023-02-07T17:39:24.040Z,19.60
2023-02-07T17:41:50.721Z,19.49
2023-02-07T17:44:21.365Z,19.44
2023-02-07T17:46:48.440Z,19.34
2023-02-07T17:49:16.588Z,19.38
2023-02-07T17:51:43.337Z,19.29
2023-02-07T17:54:09.973Z,19.32
2023-02-07T17:56:36.638Z,19.32
2023-02-07T17:59:05.372Z,19.23
2023-02-07T18:01:32.955Z,19.23
2023-02-07T18:04:00.141Z,19.28
2023-02-07T18:06:29.362Z,19.30
2023-02-07T18:08:58.602Z,19.30
2023-02-07T18:11:27.311Z,19.28
2023-02-07T18:13:56.866Z,19.29
2023-02-07T18:16:26.262Z,19.23
2023-02-07T18:18:55.045Z,19.21
2023-02-07T18:21:21.829Z,19.19
2023-02-07T18:23:48.563Z,19.21
2023-02-07T18:26:16.686Z,19.21
2023-02-07T18:28:43.750Z,19.18
2023-02-07T18:31:16.256Z,19.13
2023-02-07T18:33:43.386Z,19.15
2023-02-07T18:36:10.294Z,19.11
2023-02-07T18:38:37.315Z,19.09
2023-02-07T18:41:14.600Z,19.07
2023-02-07T18:43:42.493Z,19.04
2023-02-07T18:46:15.054Z,19.07
2023-02-07T18:48:42.017Z,19.01
2023-02-07T18:51:10.962Z,19.00
2023-02-07T18:53:38.460Z,18.99
2023-02-07T18:56:11.551Z,18.98
2023-02-07T18:58:38.710Z,18.99
2023-02-07T19:01:13.041Z,18.96
2023-02-07T19:03:39.598Z,18.92
2023-02-07T19:06:07.964Z,18.91
2023-02-07T19:08:35.078Z,18.91
2023-02-07T19:11:04.801Z,18.92
2023-02-07T19:13:33.138Z,18.96
2023-02-07T19:16:07.944Z,18.95
2023-02-07T19:18:35.102Z,18.90
2023-02-07T19:21:13.513Z,18.91
2023-02-07T19:23:41.059Z,18.94
2023-02-07T19:26:08.754Z,18.92
2023-02-07T19:28:36.840Z,18.98
2023-02-07T19:31:04.604Z,19.03
2023-02-07T19:33:31.205Z,19.01
2023-02-07T19:36:03.101Z,19.05
2023-02-07T19:38:29.681Z,19.03
2023-02-07T19:40:57.483Z,19.05
2023-02-07T19:43:24.275Z,19.02
2023-02-07T19:45:50.940Z,18.97
2023-02-07T19:48:17.580Z,19.04
2023-02-07T19:50:45.134Z,19.06
2023-02-07T19:53:11.872Z,19.07
2023-02-07T19:55:38.955Z,18.99
2023-02-07T19:58:05.619Z,19.08
2023-02-07T20:00:32.386Z,19.06
2023-02-07T20:02:59.322Z,18.98
2023-02-07T20:05:26.865Z,19.00
2023-02-07T20:07:54.034Z,18.99
2023-02-07T20:10:20.650Z,18.95
2023-02-07T20:12:48.332Z,18.97
2023-02-07T20:15:14.942Z,18.92
2023-02-07T20:17:41.658Z,18.98
2023-02-07T20:20:08.943Z,19.03
2023-02-07T20:22:35.537Z,18.99
2023-02-07T20:25:02.228Z,18.89
2023-02-07T20:27:28.809Z,18.97
2023-02-07T20:29:55.408Z,18.97
2023-02-07T20:32:22.058Z,19.00
2023-02-07T20:34:48.783Z,18.95
2023-02-07T20:37:15.450Z,18.98
2023-02-07T20:39:42.008Z,18.96
2023-02-07T20:42:08.649Z,18.91
2023-02-07T20:44:35.223Z,18.91
2023-02-07T20:47:01.810Z,18.86
2023-02-07T20:49:30.736Z,18.92
2023-02-07T20:51:59.002Z,18.97
2023-02-07T20:54:27.823Z,18.99
2023-02-07T20:56:55.260Z,19.01
2023-02-07T20:59:25.040Z,19.01
2023-02-07T21:01:52.183Z,19.02
2023-02-07T21:04:19.083Z,18.99
2023-02-07T21:06:45.763Z,19.00
2023-02-07T21:09:13.520Z,18.97
2023-02-07T21:11:45.634Z,18.97
2023-02-07T21:14:30.236Z,18.95
2023-02-07T21:16:59.393Z,18.95
2023-02-07T21:19:26.043Z,18.89
2023-02-07T21:21:55.051Z,18.89
2023-02-07T21:24:21.963Z,18.85
2023-02-07T21:26:49.292Z,18.89
2023-02-07T21:29:16.645Z,18.94
2023-02-07T21:31:43.369Z,18.88
2023-02-07T21:34:10.011Z,18.92
2023-02-07T21:36:39.901Z,18.91
2023-02-07T21:39:10.477Z,18.91
2023-02-07T21:41:39.511Z,18.88
2023-02-07T21:44:06.462Z,18.88
2023-02-07T21:46:36.436Z,18.91
2023-02-07T21:49:06.479Z,18.89
2023-02-07T21:51:35.257Z,18.89
2023-02-07T21:54:03.639Z,18.90
2023-02-07T21:56:32.766Z,18.94
2023-02-07T21:59:02.056Z,18.89
2023-02-07T22:01:30.088Z,18.90
2023-02-07T22:03:59.734Z,18.91
2023-02-07T22:06:26.814Z,18.90
2023-02-07T22:08:58.972Z,18.93
2023-02-07T22:11:28.181Z,18.92
2023-02-07T22:13:55.158Z,18.92
2023-02-07T22:16:23.535Z,18.97
2023-02-07T22:18:53.074Z,18.95
2023-02-07T22:21:29.202Z,18.95
2023-02-07T22:23:57.387Z,18.95
2023-02-07T22:26:24.759Z,18.92
2023-02-07T22:28:51.968Z,18.95
2023-02-07T22:31:24.995Z,18.92
2023-02-07T22:33:54.392Z,18.93
2023-02-07T22:36:24.178Z,18.93
2023-02-07T22:38:51.465Z,18.92
2023-02-07T22:41:19.128Z,18.92
2023-02-07T22:43:45.801Z,18.88
2023-02-07T22:46:16.445Z,18.95
2023-02-07T22:48:43.624Z,18.89
2023-02-07T22:51:17.998Z,18.88
2023-02-07T22:53:44.762Z,18.85
2023-02-07T22:56:11.811Z,18.86
2023-02-07T22:58:38.751Z,18.87
2023-02-07T23:01:06.318Z,18.84
2023-02-07T23:03:34.415Z,18.81
2023-02-07T23:06:05.290Z,18.82
2023-02-07T23:08:31.896Z,18.83
2023-02-07T23:10:58.526Z,18.84
2023-02-07T23:13:25.101Z,18.84
2023-02-07T23:15:53.883Z,18.85
2023-02-07T23:18:20.744Z,18.80
2023-02-07T23:20:47.556Z,18.81
2023-02-07T23:23:14.173Z,18.82
2023-02-07T23:25:44.928Z,18.85
2023-02-07T23:28:12.786Z,18.81
2023-02-07T23:30:40.416Z,18.84
2023-02-07T23:33:09.116Z,18.84
2023-02-07T23:35:35.975Z,18.83
2023-02-07T23:38:06.559Z,18.84
2023-02-07T23:40:33.319Z,18.84
2023-02-07T23:42:59.939Z,18.84
2023-02-07T23:45:26.543Z,18.85
2023-02-07T23:47:53.805Z,18.84
2023-02-07T23:50:22.291Z,18.86
2023-02-07T23:52:48.884Z,18.88
2023-02-07T23:55:15.570Z,18.85
2023-02-07T23:57:42.139Z,18.87
